Pahala, Hawaii
Current Conditions -  °F | °C
As of 7:56 PM on Friday 24 Oct 2014 (Local Time) from PHSF Reporting Station
Clear Clear  
Wind Chill: 52°   Ceiling: Unl
Heat Index: 52°   Visibility: 9mi
Dew Point: 50°   Wind: 2mph
Humidity: 92%   Direction: 130°SE
Pressure: 30.38"   Gusts: NA
Location:  19.2°N, 155.47°W
Report Text: PHSF 250556Z AUTO 13002KT 9SM CLR 11/10 A3038 RMK AO2 SLP183 T01120100 10199 20112 51012 $
Loading
Personal Weather Stations






























Interactive Weather Map
Tropical Storm Tracking
New forecast layout! Learn more

10-Day Weather Forecast

Advertisements
Track Severe Weather on mobile